Главная страница
METAR-TAF:

METAR-TAF

Аэропорты :

Doylestown Airport

Doylestown, Пенсильвания, США

широта: 40-19-48N, долгота: 075-07-21W, высота над уровнем моря: 120 м

Текущие метеонаблюдения

Эта сводка был подготовлена 53 минут назад, в 01:54 UTC
Ветер 8 Узел от северно-северо-западный с порывами до 20 Узел
Температура -3°C
Влажность 39%
Давление 1021 hPa
Видимость: 16.1 км
ясное небо

METAR: KDYL 130154Z AUTO 34008G20KT 10SM CLR M03/M15 A3016 RMK AO2 PK WND 36026/0106 SLP222 T10331150

Время: 21:47 (02:47 UTC)


TAF: отсутствует

Метеонаблюдения и прогнозы для более 4000 аэропортов (сводки METAR и TAF).

Имеющиеся станции представлены на карте желтыми и красными точками.

Чтобы увидеть название станции, наведите на нее мышь.

Затем щелкните, чтобы увидеть метеонаблюдения и метеопрогнозы.

Управление картой: чтобы увеличить масштаб, щелкните зеленые кнопки с черным крестиком; чтобы уменьшить масштаб, щелкните зеленую кнопку с тире; для просмотра соседних карт щелкайте зеленые стрелки.


METAR-TAF: